createdAt,value
2023-05-19T00:00:58.944Z,95312.06
2023-05-19T00:03:25.930Z,95315.53
2023-05-19T00:05:58.156Z,95305.94
2023-05-19T00:08:25.081Z,95312.13
2023-05-19T00:10:51.984Z,95299.28
2023-05-19T00:13:19.799Z,95303.94
2023-05-19T00:15:46.836Z,95300.09
2023-05-19T00:18:13.706Z,95308.13
2023-05-19T00:20:40.433Z,95305.66
2023-05-19T00:23:07.140Z,95301.31
2023-05-19T00:25:33.835Z,95298.06
2023-05-19T00:28:00.513Z,95297.59
2023-05-19T00:30:27.258Z,95295.75
2023-05-19T00:32:53.989Z,95291.50
2023-05-19T00:35:20.797Z,95285.44
2023-05-19T00:37:47.544Z,95286.44
2023-05-19T00:40:14.869Z,95280.31
2023-05-19T00:42:42.132Z,95282.97
2023-05-19T00:45:09.142Z,95281.50
2023-05-19T00:47:36.030Z,95276.53
2023-05-19T00:50:02.736Z,95277.91
2023-05-19T00:52:29.519Z,95288.19
2023-05-19T00:54:56.184Z,95283.19
2023-05-19T00:57:23.602Z,95290.03
2023-05-19T00:59:50.550Z,95284.91
2023-05-19T01:02:17.402Z,95287.13
2023-05-19T01:04:45.128Z,95283.25
2023-05-19T01:07:11.806Z,95284.63
2023-05-19T01:09:39.365Z,95282.59
2023-05-19T01:12:06.682Z,95280.72
2023-05-19T01:14:33.501Z,95286.50
2023-05-19T01:17:09.726Z,95273.72
2023-05-19T01:19:54.565Z,95282.97
2023-05-19T01:22:36.111Z,95279.13
2023-05-19T01:25:28.251Z,95281.16
2023-05-19T01:28:00.490Z,95279.50
2023-05-19T01:30:42.775Z,95282.69
2023-05-19T01:33:12.811Z,95284.34
2023-05-19T01:35:43.909Z,95285.22
2023-05-19T01:38:13.154Z,95286.81
2023-05-19T01:40:41.423Z,95282.03
2023-05-19T01:43:11.829Z,95286.44
2023-05-19T01:45:39.957Z,95286.69
2023-05-19T01:48:09.910Z,95283.94
2023-05-19T01:50:38.174Z,95282.50
2023-05-19T01:53:05.105Z,95285.84
2023-05-19T01:55:32.134Z,95283.72
2023-05-19T01:58:36.558Z,95277.19
2023-05-19T02:01:29.703Z,95276.00
2023-05-19T02:04:30.531Z,95284.66
2023-05-19T02:07:21.526Z,95279.84
2023-05-19T02:09:58.765Z,95282.03
2023-05-19T02:12:31.004Z,95283.75
2023-05-19T02:15:05.573Z,95281.09
2023-05-19T02:17:36.085Z,95277.84
2023-05-19T02:20:06.529Z,95276.19
2023-05-19T02:22:33.269Z,95278.94
2023-05-19T02:25:00.021Z,95278.25
2023-05-19T02:27:26.887Z,95270.06
2023-05-19T02:29:53.826Z,95279.25
2023-05-19T02:32:21.304Z,95277.22
2023-05-19T02:34:48.216Z,95274.38
2023-05-19T02:37:16.425Z,95276.91
2023-05-19T02:39:44.088Z,95287.34
2023-05-19T02:42:11.277Z,95279.97
2023-05-19T02:44:38.090Z,95283.16
2023-05-19T02:47:05.077Z,95282.09
2023-05-19T02:49:31.771Z,95281.50
2023-05-19T02:51:58.432Z,95271.69
2023-05-19T02:54:25.132Z,95273.38
2023-05-19T02:56:51.810Z,95274.69
2023-05-19T02:59:18.500Z,95266.25
2023-05-19T03:01:45.262Z,95262.69
2023-05-19T03:04:11.925Z,95256.59
2023-05-19T03:06:38.662Z,95254.88
2023-05-19T03:09:05.373Z,95273.06
2023-05-19T03:11:32.246Z,95263.53
2023-05-19T03:13:59.296Z,95269.75
2023-05-19T03:16:25.991Z,95262.88
2023-05-19T03:18:52.756Z,95260.34
2023-05-19T03:21:19.426Z,95255.66
2023-05-19T03:23:46.098Z,95245.53
2023-05-19T03:26:12.799Z,95249.78
2023-05-19T03:28:39.476Z,95247.31
2023-05-19T03:31:06.179Z,95256.22
2023-05-19T03:33:32.900Z,95243.84
2023-05-19T03:35:59.617Z,95241.22
2023-05-19T03:38:26.405Z,95245.94
2023-05-19T03:40:53.062Z,95247.69
2023-05-19T03:43:19.693Z,95245.53
2023-05-19T03:45:46.497Z,95248.31
2023-05-19T03:48:13.274Z,95255.81
2023-05-19T03:50:39.951Z,95257.06
2023-05-19T03:53:06.650Z,95261.72
2023-05-19T03:55:33.442Z,95258.31
2023-05-19T03:58:00.181Z,95261.88
2023-05-19T04:00:26.869Z,95260.59
2023-05-19T04:02:53.604Z,95258.69
2023-05-19T04:05:20.509Z,95269.25
2023-05-19T04:07:47.295Z,95262.47
2023-05-19T04:10:14.033Z,95268.88
2023-05-19T04:12:40.728Z,95272.44
2023-05-19T04:15:07.951Z,95276.44
2023-05-19T04:17:34.840Z,95273.94
2023-05-19T04:20:01.681Z,95280.16
2023-05-19T04:22:28.415Z,95279.25
2023-05-19T04:24:55.133Z,95274.88
2023-05-19T04:27:21.890Z,95278.22
2023-05-19T04:29:48.688Z,95273.91
2023-05-19T04:32:15.954Z,95285.25
2023-05-19T04:34:45.460Z,95277.78
2023-05-19T04:37:15.168Z,95278.59
2023-05-19T04:39:42.905Z,95283.91
2023-05-19T04:42:10.028Z,95287.09
2023-05-19T04:44:36.708Z,95282.50
2023-05-19T04:47:04.240Z,95288.16
2023-05-19T04:49:30.924Z,95285.75
2023-05-19T04:51:57.718Z,95286.34
2023-05-19T04:54:24.380Z,95283.09
2023-05-19T04:56:51.089Z,95283.47
2023-05-19T04:59:17.758Z,95281.72
2023-05-19T05:01:44.467Z,95294.66
2023-05-19T05:04:11.488Z,95293.03
2023-05-19T05:06:38.196Z,95291.66
2023-05-19T05:09:05.122Z,95289.19
2023-05-19T05:11:32.241Z,95289.00
2023-05-19T05:13:59.321Z,95293.59
2023-05-19T05:16:26.568Z,95289.13
2023-05-19T05:18:53.627Z,95285.34
2023-05-19T05:21:20.807Z,95284.97
2023-05-19T05:23:47.814Z,95282.56
2023-05-19T05:26:19.452Z,95279.78
2023-05-19T05:28:46.190Z,95284.47
2023-05-19T05:31:12.939Z,95280.16
2023-05-19T05:33:39.868Z,95281.66
2023-05-19T05:36:06.943Z,95281.41
2023-05-19T05:38:33.628Z,95283.94
2023-05-19T05:41:01.631Z,95284.50
2023-05-19T05:43:28.520Z,95280.31
2023-05-19T05:45:56.980Z,95276.91
2023-05-19T05:48:24.341Z,95277.38
2023-05-19T05:50:51.994Z,95274.66
2023-05-19T05:53:20.317Z,95270.44
2023-05-19T05:55:47.997Z,95277.28
2023-05-19T05:58:15.736Z,95276.75
2023-05-19T06:00:43.730Z,95276.53
2023-05-19T06:03:11.530Z,95277.34
2023-05-19T06:05:41.314Z,95277.41
2023-05-19T06:08:08.068Z,95273.41
2023-05-19T06:10:35.082Z,95278.81
2023-05-19T06:13:02.014Z,95271.56
2023-05-19T06:15:28.724Z,95275.31
2023-05-19T06:17:55.484Z,95264.66
2023-05-19T06:20:22.259Z,95274.75
2023-05-19T06:22:48.977Z,95273.31
2023-05-19T06:25:15.727Z,95273.78
2023-05-19T06:27:42.410Z,95259.75
2023-05-19T06:30:09.420Z,95260.69
2023-05-19T06:32:36.177Z,95261.22
2023-05-19T06:35:06.149Z,95248.81
2023-05-19T06:37:32.835Z,95259.41
2023-05-19T06:39:59.597Z,95258.78
2023-05-19T06:42:26.280Z,95263.22
2023-05-19T06:44:53.282Z,95261.63
2023-05-19T06:47:20.024Z,95270.59
2023-05-19T06:49:47.600Z,95261.53
2023-05-19T06:52:14.316Z,95263.44
2023-05-19T06:54:41.037Z,95259.84
2023-05-19T06:57:07.877Z,95255.50
2023-05-19T06:59:34.560Z,95249.25
2023-05-19T07:02:01.261Z,95248.19
2023-05-19T07:04:27.999Z,95256.06
2023-05-19T07:06:54.678Z,95245.22
2023-05-19T07:09:21.469Z,95255.69
2023-05-19T07:11:48.752Z,95245.28
2023-05-19T07:14:15.481Z,95259.38
2023-05-19T07:16:42.252Z,95260.59
2023-05-19T07:19:08.957Z,95263.19
2023-05-19T07:21:35.817Z,95258.03
2023-05-19T07:24:02.497Z,95259.94
2023-05-19T07:26:29.385Z,95263.69
2023-05-19T07:28:56.446Z,95251.25
2023-05-19T07:31:24.464Z,95251.38
2023-05-19T07:33:53.123Z,95253.94
2023-05-19T07:36:21.247Z,95251.63
2023-05-19T07:38:47.998Z,95256.09
2023-05-19T07:41:15.175Z,95242.94
2023-05-19T07:43:42.956Z,95247.31
2023-05-19T07:46:09.842Z,95246.78
2023-05-19T07:48:37.123Z,95247.69
2023-05-19T07:51:03.932Z,95238.03
2023-05-19T07:53:30.782Z,95235.56
2023-05-19T07:56:00.269Z,95230.72
2023-05-19T07:58:26.999Z,95230.34
2023-05-19T08:00:53.658Z,95229.00
2023-05-19T08:03:20.872Z,95228.44
2023-05-19T08:05:47.842Z,95223.06
2023-05-19T08:08:14.693Z,95225.16
2023-05-19T08:10:41.346Z,95229.38
2023-05-19T08:13:08.126Z,95228.53
2023-05-19T08:15:37.488Z,95231.53
2023-05-19T08:18:04.293Z,95235.75
2023-05-19T08:20:31.501Z,95229.72
2023-05-19T08:22:58.619Z,95238.19
2023-05-19T08:25:25.379Z,95243.47
2023-05-19T08:27:52.071Z,95226.94
2023-05-19T08:30:18.757Z,95229.28
2023-05-19T08:32:45.558Z,95226.13
2023-05-19T08:35:12.318Z,95236.00
2023-05-19T08:37:38.990Z,95228.19
2023-05-19T08:40:06.497Z,95228.47
2023-05-19T08:42:33.450Z,95222.47
2023-05-19T08:45:01.580Z,95218.19
2023-05-19T08:47:29.481Z,95214.63
2023-05-19T08:50:05.393Z,95216.19
2023-05-19T08:52:53.553Z,95208.00
2023-05-19T08:55:58.864Z,95213.69
2023-05-19T08:58:30.364Z,95218.16
2023-05-19T09:01:01.122Z,95215.50
2023-05-19T09:03:29.477Z,95218.22
2023-05-19T09:05:56.380Z,95210.97
2023-05-19T09:08:23.254Z,95207.94
2023-05-19T09:10:53.000Z,95211.78
2023-05-19T09:13:20.117Z,95207.75
2023-05-19T09:15:48.142Z,95204.56
2023-05-19T09:18:14.885Z,95199.84
2023-05-19T09:20:43.945Z,95203.97
2023-05-19T09:23:18.473Z,95205.38
2023-05-19T09:25:52.924Z,95187.44
2023-05-19T09:28:30.579Z,95184.09
2023-05-19T09:31:07.301Z,95181.31
2023-05-19T09:33:36.411Z,95187.72
2023-05-19T09:36:04.481Z,95187.44
2023-05-19T09:38:31.399Z,95189.84
2023-05-19T09:41:00.335Z,95191.50
2023-05-19T09:43:34.597Z,95182.13
2023-05-19T09:46:04.368Z,95181.44
2023-05-19T09:48:31.227Z,95184.66
2023-05-19T09:50:58.199Z,95184.97
2023-05-19T09:53:25.187Z,95188.75
2023-05-19T09:55:55.901Z,95184.69
2023-05-19T09:58:22.705Z,95185.81
2023-05-19T10:00:50.948Z,95180.41
2023-05-19T10:03:19.768Z,95168.88
2023-05-19T10:05:48.581Z,95170.03
2023-05-19T10:08:19.200Z,95181.84
2023-05-19T10:10:47.158Z,95173.56
2023-05-19T10:13:14.002Z,95171.66
2023-05-19T10:15:57.283Z,95172.75
2023-05-19T10:18:26.601Z,95172.22
2023-05-19T10:20:54.626Z,95177.00
2023-05-19T10:23:21.318Z,95180.81
2023-05-19T10:25:51.205Z,95173.03
2023-05-19T10:28:22.584Z,95173.00
2023-05-19T10:30:54.795Z,95169.78
2023-05-19T10:33:54.455Z,95177.56
2023-05-19T10:36:26.937Z,95170.09
2023-05-19T10:39:03.805Z,95163.69
2023-05-19T10:41:55.433Z,95167.66
2023-05-19T10:44:40.032Z,95169.81
2023-05-19T10:47:07.793Z,95165.81
2023-05-19T10:49:36.252Z,95157.78
2023-05-19T10:52:23.031Z,95162.31
2023-05-19T10:54:50.054Z,95161.00
2023-05-19T10:57:26.392Z,95161.28
2023-05-19T10:59:53.086Z,95158.56
2023-05-19T11:02:39.269Z,95150.59
2023-05-19T11:05:12.280Z,95147.56
2023-05-19T11:07:42.357Z,95150.19
2023-05-19T11:10:12.043Z,95143.38
2023-05-19T11:12:44.762Z,95143.69
2023-05-19T11:15:15.472Z,95152.91
2023-05-19T11:17:49.011Z,95146.94
2023-05-19T11:20:29.390Z,95150.25
2023-05-19T11:23:06.106Z,95150.25
2023-05-19T11:25:42.628Z,95135.72
2023-05-19T11:28:11.022Z,95143.19
2023-05-19T11:30:39.786Z,95148.50
2023-05-19T11:33:07.867Z,95149.31
2023-05-19T11:35:36.508Z,95136.03
2023-05-19T11:38:03.745Z,95134.63
2023-05-19T11:40:30.926Z,95143.84
2023-05-19T11:42:58.451Z,95139.59
2023-05-19T11:45:31.556Z,95148.09
2023-05-19T11:48:01.931Z,95141.16
2023-05-19T11:50:31.405Z,95134.97
2023-05-19T11:53:01.213Z,95140.72
2023-05-19T11:55:28.537Z,95131.94
2023-05-19T11:58:02.950Z,95125.59
2023-05-19T12:00:35.958Z,95136.09
2023-05-19T12:03:03.290Z,95125.97
2023-05-19T12:05:31.506Z,95123.59
2023-05-19T12:08:00.607Z,95128.63
2023-05-19T12:10:30.904Z,95122.25
2023-05-19T12:12:57.847Z,95114.97
2023-05-19T12:15:25.983Z,95118.47
2023-05-19T12:18:01.153Z,95113.44
2023-05-19T12:20:30.524Z,95115.28
2023-05-19T12:22:58.759Z,95119.59
2023-05-19T12:25:25.652Z,95118.00
2023-05-19T12:27:58.087Z,95120.47
2023-05-19T12:30:27.995Z,95120.56
2023-05-19T12:32:55.452Z,95119.31
2023-05-19T12:35:27.402Z,95118.78
2023-05-19T12:37:54.249Z,95121.16
2023-05-19T12:40:21.576Z,95117.06
2023-05-19T12:42:49.347Z,95112.88
2023-05-19T12:45:21.116Z,95118.66
2023-05-19T12:47:49.307Z,95114.41
2023-05-19T12:50:16.079Z,95114.91
2023-05-19T12:52:50.158Z,95109.03
2023-05-19T12:55:17.501Z,95107.16
2023-05-19T12:57:49.903Z,95108.28
2023-05-19T13:00:22.155Z,95111.81
2023-05-19T13:03:07.011Z,95114.94
2023-05-19T13:05:42.314Z,95110.06
2023-05-19T13:08:09.074Z,95103.16
2023-05-19T13:10:38.628Z,95106.94
2023-05-19T13:13:06.581Z,95110.91
2023-05-19T13:15:40.233Z,95116.75
2023-05-19T13:18:10.382Z,95104.47
2023-05-19T13:20:42.084Z,95090.13
2023-05-19T13:23:13.315Z,95100.97
2023-05-19T13:25:41.048Z,95091.44
2023-05-19T13:28:07.794Z,95092.44
2023-05-19T13:30:37.747Z,95089.22
2023-05-19T13:33:04.886Z,95101.28
2023-05-19T13:35:31.715Z,95098.59
2023-05-19T13:37:58.527Z,95105.34
2023-05-19T13:40:25.232Z,95106.69
2023-05-19T13:42:52.143Z,95098.44
2023-05-19T13:45:18.867Z,95103.81
2023-05-19T13:47:45.761Z,95101.91
2023-05-19T13:50:12.601Z,95106.47
2023-05-19T13:52:39.502Z,95111.25
2023-05-19T13:55:07.427Z,95101.38
2023-05-19T13:57:34.128Z,95103.22
2023-05-19T14:00:03.691Z,95112.28
2023-05-19T14:02:31.150Z,95105.78
2023-05-19T14:04:58.095Z,95099.94
2023-05-19T14:07:24.760Z,95086.63
2023-05-19T14:09:51.430Z,95089.84
2023-05-19T14:12:18.069Z,95088.84
2023-05-19T14:14:44.919Z,95088.78
2023-05-19T14:17:15.149Z,95095.19
2023-05-19T14:19:41.804Z,95100.31
2023-05-19T14:22:08.449Z,95098.13
2023-05-19T14:24:35.285Z,95081.78
2023-05-19T14:27:01.954Z,95105.00
2023-05-19T14:29:28.631Z,95090.22
2023-05-19T14:31:55.304Z,95087.41
2023-05-19T14:34:22.083Z,95093.56
2023-05-19T14:36:48.815Z,95097.25
2023-05-19T14:39:15.719Z,95090.00
2023-05-19T14:41:42.443Z,95100.81
2023-05-19T14:44:09.205Z,95092.72
2023-05-19T14:46:35.922Z,95087.00
2023-05-19T14:49:02.716Z,95084.00
2023-05-19T14:51:29.353Z,95086.47
2023-05-19T14:53:56.044Z,95077.34
2023-05-19T14:56:22.729Z,95084.41
2023-05-19T14:58:49.433Z,95086.31
2023-05-19T15:01:16.290Z,95096.69
2023-05-19T15:03:43.112Z,95087.13
2023-05-19T15:06:10.469Z,95087.03
2023-05-19T15:08:37.540Z,95100.19
2023-05-19T15:11:04.738Z,95092.22
2023-05-19T15:13:31.415Z,95088.78
2023-05-19T15:16:12.379Z,95097.81
2023-05-19T15:18:43.578Z,95088.09
2023-05-19T15:21:10.311Z,95095.25
2023-05-19T15:23:36.980Z,95097.56
2023-05-19T15:26:03.943Z,95083.59
2023-05-19T15:28:32.806Z,95103.78
2023-05-19T15:30:59.615Z,95081.44
2023-05-19T15:33:26.293Z,95087.72
2023-05-19T15:35:52.944Z,95088.97
2023-05-19T15:38:19.911Z,95075.00
2023-05-19T15:40:47.330Z,95079.50
2023-05-19T15:43:14.178Z,95075.53
2023-05-19T15:45:40.966Z,95072.16
2023-05-19T15:48:08.422Z,95081.31
2023-05-19T15:50:36.386Z,95080.16
2023-05-19T15:53:03.372Z,95105.59
2023-05-19T15:55:30.068Z,95091.53
2023-05-19T15:57:56.746Z,95088.81
2023-05-19T16:00:23.472Z,95087.69
2023-05-19T16:02:50.217Z,95088.44
2023-05-19T16:05:17.063Z,95087.13
2023-05-19T16:07:43.751Z,95076.28
2023-05-19T16:10:10.625Z,95081.31
2023-05-19T16:12:37.288Z,95076.72
2023-05-19T16:15:04.199Z,95073.19
2023-05-19T16:17:30.934Z,95070.06
2023-05-19T16:19:57.755Z,95063.72
2023-05-19T16:22:24.491Z,95068.59
2023-05-19T16:24:51.961Z,95076.81
2023-05-19T16:27:19.050Z,95072.97
2023-05-19T16:29:45.886Z,95065.34
2023-05-19T16:32:13.157Z,95064.78
2023-05-19T16:34:40.128Z,95056.47
2023-05-19T16:37:07.031Z,95057.00
2023-05-19T16:39:36.063Z,95057.72
2023-05-19T16:42:03.924Z,95060.44
2023-05-19T16:44:30.587Z,95058.22
2023-05-19T16:46:57.348Z,95054.34
2023-05-19T16:49:24.037Z,95049.22
2023-05-19T16:51:50.742Z,95054.34
2023-05-19T16:54:17.478Z,95057.72
2023-05-19T16:56:44.290Z,95048.47
2023-05-19T16:59:10.948Z,95046.97
2023-05-19T17:01:37.674Z,95062.03
2023-05-19T17:04:04.477Z,95055.78
2023-05-19T17:06:34.043Z,95057.59
2023-05-19T17:09:00.766Z,95050.28
2023-05-19T17:11:27.834Z,95060.94
2023-05-19T17:13:54.557Z,95053.38
2023-05-19T17:16:21.324Z,95059.09
2023-05-19T17:18:48.147Z,95050.75
2023-05-19T17:21:15.160Z,95061.03
2023-05-19T17:23:41.826Z,95057.56
2023-05-19T17:26:08.775Z,95057.59
2023-05-19T17:28:35.481Z,95055.91
2023-05-19T17:31:09.731Z,95059.69
2023-05-19T17:33:36.774Z,95061.81
2023-05-19T17:36:04.442Z,95056.06
2023-05-19T17:38:31.247Z,95053.09
2023-05-19T17:40:58.903Z,95050.47
2023-05-19T17:43:25.810Z,95059.97
2023-05-19T17:45:52.806Z,95048.44
2023-05-19T17:48:19.697Z,95053.69
2023-05-19T17:50:47.608Z,95056.63
2023-05-19T17:53:16.742Z,95051.38
2023-05-19T17:55:59.101Z,95050.06
2023-05-19T17:58:26.659Z,95044.00
2023-05-19T18:00:53.890Z,95050.06
2023-05-19T18:03:24.159Z,95046.34
2023-05-19T18:05:51.270Z,95051.22
2023-05-19T18:08:18.468Z,95059.53
2023-05-19T18:10:45.391Z,95057.28
2023-05-19T18:13:12.250Z,95067.38
2023-05-19T18:15:38.963Z,95059.06
2023-05-19T18:18:05.741Z,95065.00
2023-05-19T18:20:34.943Z,95053.69
2023-05-19T18:23:02.271Z,95054.78
2023-05-19T18:25:29.081Z,95062.09
2023-05-19T18:27:55.842Z,95059.69
2023-05-19T18:30:23.179Z,95054.16
2023-05-19T18:32:49.918Z,95070.44
2023-05-19T18:35:16.680Z,95066.81
2023-05-19T18:37:45.946Z,95055.78
2023-05-19T18:40:12.712Z,95055.78
2023-05-19T18:42:39.460Z,95050.00
2023-05-19T18:45:06.576Z,95054.16
2023-05-19T18:47:33.410Z,95067.16
2023-05-19T18:50:00.208Z,95062.16
2023-05-19T18:52:26.943Z,95069.19
2023-05-19T18:54:53.832Z,95067.50
2023-05-19T18:57:20.510Z,95068.94
2023-05-19T18:59:47.204Z,95068.53
2023-05-19T19:02:13.950Z,95056.78
2023-05-19T19:04:40.729Z,95062.34
2023-05-19T19:07:07.503Z,95062.59
2023-05-19T19:09:34.269Z,95064.66
2023-05-19T19:12:00.961Z,95059.25
2023-05-19T19:14:27.702Z,95062.41
2023-05-19T19:16:54.462Z,95059.84
2023-05-19T19:19:21.346Z,95075.44
2023-05-19T19:21:48.133Z,95062.91
2023-05-19T19:24:14.938Z,95067.09
2023-05-19T19:26:41.694Z,95072.16
2023-05-19T19:29:08.396Z,95074.13
2023-05-19T19:31:35.114Z,95081.03
2023-05-19T19:34:01.812Z,95080.91
2023-05-19T19:36:28.499Z,95086.13
2023-05-19T19:38:55.205Z,95075.91
2023-05-19T19:41:21.891Z,95077.03
2023-05-19T19:43:48.628Z,95073.06
2023-05-19T19:46:15.320Z,95079.75
2023-05-19T19:48:42.278Z,95078.31
2023-05-19T19:51:09.016Z,95076.19
2023-05-19T19:53:35.746Z,95065.75
2023-05-19T19:56:03.482Z,95074.22
2023-05-19T19:58:30.265Z,95077.91
2023-05-19T20:01:01.726Z,95079.19
2023-05-19T20:03:28.712Z,95075.69
2023-05-19T20:05:56.604Z,95089.66
2023-05-19T20:08:24.945Z,95074.22
2023-05-19T20:10:52.194Z,95083.75
2023-05-19T20:13:19.490Z,95080.56
2023-05-19T20:15:49.401Z,95071.22
2023-05-19T20:18:16.150Z,95078.25
2023-05-19T20:20:43.000Z,95073.88
2023-05-19T20:23:09.792Z,95074.00
2023-05-19T20:25:42.540Z,95079.56
2023-05-19T20:28:17.032Z,95079.09
2023-05-19T20:30:44.041Z,95076.28
2023-05-19T20:33:10.778Z,95066.25
2023-05-19T20:35:37.896Z,95074.34
2023-05-19T20:38:04.657Z,95080.56
2023-05-19T20:40:31.284Z,95079.06
2023-05-19T20:42:58.391Z,95084.19
2023-05-19T20:45:25.089Z,95074.72
2023-05-19T20:47:52.493Z,95079.91
2023-05-19T20:50:19.413Z,95080.56
2023-05-19T20:52:46.101Z,95083.56
2023-05-19T20:55:12.774Z,95073.63
2023-05-19T20:57:39.536Z,95073.16
2023-05-19T21:00:06.977Z,95078.47
2023-05-19T21:02:36.454Z,95075.09
2023-05-19T21:05:04.028Z,95077.94
2023-05-19T21:07:30.854Z,95095.38
2023-05-19T21:09:57.524Z,95068.44
2023-05-19T21:12:24.186Z,95063.25
2023-05-19T21:14:51.856Z,95077.75
2023-05-19T21:17:18.510Z,95070.97
2023-05-19T21:19:45.184Z,95077.03
2023-05-19T21:22:11.880Z,95080.63
2023-05-19T21:24:38.582Z,95078.22
2023-05-19T21:27:05.472Z,95063.25
2023-05-19T21:29:32.143Z,95068.81
2023-05-19T21:32:01.376Z,95073.50
2023-05-19T21:34:28.053Z,95059.81
2023-05-19T21:36:54.864Z,95061.28
2023-05-19T21:39:21.501Z,95059.94
2023-05-19T21:41:48.244Z,95059.94
2023-05-19T21:44:15.034Z,95060.84
2023-05-19T21:46:41.806Z,95066.66
2023-05-19T21:49:10.253Z,95064.44
2023-05-19T21:51:36.932Z,95058.56
2023-05-19T21:54:03.630Z,95054.69
2023-05-19T21:56:30.310Z,95058.13
2023-05-19T21:58:57.111Z,95057.31
2023-05-19T22:01:23.815Z,95052.03
2023-05-19T22:03:50.562Z,95046.25
2023-05-19T22:06:17.232Z,95059.97
2023-05-19T22:08:44.006Z,95050.19
2023-05-19T22:11:10.694Z,95045.59
2023-05-19T22:13:37.501Z,95048.22
2023-05-19T22:16:04.450Z,95059.28
2023-05-19T22:18:31.148Z,95041.66
2023-05-19T22:20:57.830Z,95044.78
2023-05-19T22:23:24.483Z,95057.78
2023-05-19T22:25:51.367Z,95045.00
2023-05-19T22:28:18.050Z,95050.31
2023-05-19T22:30:44.717Z,95051.22
2023-05-19T22:33:12.706Z,95035.91
2023-05-19T22:35:39.542Z,95044.66
2023-05-19T22:38:07.470Z,95043.59
2023-05-19T22:40:36.690Z,95048.22
2023-05-19T22:43:03.560Z,95048.47
2023-05-19T22:45:31.219Z,95036.47
2023-05-19T22:47:58.343Z,95050.75
2023-05-19T22:50:25.099Z,95044.66
2023-05-19T22:52:51.765Z,95054.53
2023-05-19T22:55:18.470Z,95042.00
2023-05-19T22:57:45.214Z,95039.81
2023-05-19T23:00:12.685Z,95048.78
2023-05-19T23:02:42.595Z,95034.41
2023-05-19T23:05:09.414Z,95029.13
2023-05-19T23:07:36.365Z,95022.66
2023-05-19T23:10:03.248Z,95042.00
2023-05-19T23:12:30.000Z,95025.88
2023-05-19T23:14:56.759Z,95027.28
2023-05-19T23:17:23.617Z,95028.97
2023-05-19T23:19:50.409Z,95034.03
2023-05-19T23:22:17.163Z,95036.00
2023-05-19T23:24:43.888Z,95036.81
2023-05-19T23:27:10.566Z,95026.94
2023-05-19T23:29:37.300Z,95027.28
2023-05-19T23:32:04.201Z,95023.34
2023-05-19T23:34:30.877Z,95031.63
2023-05-19T23:36:57.554Z,95039.22
2023-05-19T23:39:24.897Z,95026.94
2023-05-19T23:41:51.699Z,95029.44
2023-05-19T23:44:19.217Z,95017.50
2023-05-19T23:46:46.021Z,95031.88
2023-05-19T23:49:12.733Z,95027.84
2023-05-19T23:51:39.489Z,95022.34
2023-05-19T23:54:06.239Z,95023.34
2023-05-19T23:56:32.889Z,95025.09
2023-05-19T23:59:00.658Z,95027.63
